.
WxDataArchive / Data Records for 2008-11-18
2008-11-17 November 2008 2008-11-19

Data Records for Tuesday, 18 November 2008

Time	Temp	Chill	HIndex	Humid	Dewpt	 Wind 	HiWind	WindDir	Rain 	Barom 
-----	----	-----	------	-----	-----	------	------	-------	-----	----- 
00:00	26.4	26.4	26.4	83	22.0	1	3	248	0.00	30.241 
00:05	26.4	26.4	26.4	83	22.0	1	5	0	0.00	30.243 
00:10	26.4	26.4	26.4	82	21.7	1	3	248	0.00	30.243 
00:15	26.4	26.4	26.4	82	21.7	0	1	315	0.00	30.246 
00:20	26.4	26.4	26.4	82	21.7	1	2	315	0.00	30.246 
00:25	26.3	26.3	26.3	81	21.3	0	2	338	0.00	30.247 
00:30	26.3	26.3	26.3	82	21.6	0	2	338	0.00	30.248 
00:35	26.1	26.1	26.1	82	21.4	0	2	338	0.00	30.248 
00:40	26.1	26.1	26.1	83	21.7	0	2	338	0.00	30.248 
00:45	26.0	26.0	26.0	83	21.6	0	3	270	0.00	30.248 
00:50	26.0	26.0	26.0	83	21.6	0	1	315	0.00	30.248 
00:55	25.8	25.8	25.8	84	21.6	0	1	315	0.00	30.250 
01:00	25.7	25.7	25.7	84	21.5	0	1	315	0.00	30.251 
01:05	25.7	25.7	25.7	84	21.5	0	1	315	0.00	30.252 
01:10	25.6	25.6	25.6	85	21.7	0	1	315	0.00	30.254 
01:15	25.6	25.6	25.6	85	21.7	0	3	315	0.00	30.256 
01:20	25.6	25.6	25.6	85	21.7	0	3	315	0.00	30.257 
01:25	25.6	25.6	25.6	85	21.7	0	2	315	0.00	30.259 
01:30	25.6	25.6	25.6	85	21.7	0	1	315	0.00	30.261 
01:35	25.4	25.4	25.4	86	21.8	0	2	315	0.00	30.263 
01:40	25.4	25.4	25.4	85	21.5	0	1	315	0.00	30.263 
01:45	25.3	25.3	25.3	86	21.7	0	1	315	0.00	30.265 
01:50	25.1	25.1	25.1	85	21.2	0	1	315	0.00	30.265 
01:55	25.1	25.1	25.1	86	21.5	0	1	315	0.00	30.266 
02:00	25.1	25.1	25.1	86	21.5	0	1	315	0.00	30.271 
02:05	25.0	25.0	25.0	86	21.4	0	1	315	0.00	30.274 
02:10	25.0	25.0	25.0	86	21.4	0	1	315	0.00	30.276 
02:15	25.0	25.0	25.0	86	21.4	0	1	315	0.00	30.279 
02:20	25.0	25.0	25.0	86	21.4	0	1	315	0.00	30.281 
02:25	24.8	24.8	24.8	86	21.2	0	0	---	0.00	30.283 
02:30	25.0	25.0	25.0	86	21.4	0	1	315	0.00	30.286 
02:35	25.3	25.3	25.3	87	22.0	0	3	338	0.00	30.289 
02:40	25.3	25.3	25.3	86	21.7	0	2	338	0.00	30.292 
02:45	25.1	25.1	25.1	86	21.5	0	1	338	0.00	30.295 
02:50	25.1	25.1	25.1	86	21.5	0	1	338	0.00	30.295 
02:55	25.0	25.0	25.0	86	21.4	0	1	338	0.00	30.296 
03:00	25.0	25.0	25.0	86	21.4	0	2	338	0.00	30.296 
03:05	24.8	24.8	24.8	86	21.2	0	1	338	0.00	30.299 
03:10	24.8	24.8	24.8	86	21.2	0	1	338	0.00	30.300 
03:15	24.7	24.7	24.7	85	20.8	0	1	338	0.00	30.300 
03:20	24.5	24.5	24.5	86	20.9	0	4	270	0.00	30.303 
03:25	24.5	24.5	24.5	86	20.9	0	1	270	0.00	30.305 
03:30	24.4	24.4	24.4	85	20.6	0	1	270	0.00	30.312 
03:35	24.2	24.2	24.2	85	20.4	0	1	270	0.00	30.313 
03:40	24.1	24.1	24.1	86	20.5	0	1	270	0.00	30.314 
03:45	24.1	24.1	24.1	86	20.5	0	2	270	0.00	30.316 
03:50	23.9	23.9	23.9	86	20.3	0	1	270	0.00	30.317 
03:55	23.8	23.8	23.8	86	20.2	0	2	270	0.00	30.318 
04:00	23.9	23.9	23.9	86	20.3	0	1	270	0.00	30.320 
04:05	23.8	23.8	23.8	85	20.0	0	1	270	0.00	30.323 
04:10	23.8	23.8	23.8	85	20.0	0	1	270	0.00	30.324 
04:15	23.8	23.8	23.8	85	20.0	0	2	270	0.00	30.329 
04:20	23.6	23.6	23.6	85	19.8	0	1	270	0.00	30.328 
04:25	23.6	23.6	23.6	85	19.8	0	1	270	0.00	30.330 
04:30	23.5	23.5	23.5	85	19.7	0	0	---	0.00	30.331 
04:35	23.5	23.5	23.5	85	19.7	0	1	270	0.00	30.331 
04:40	23.3	23.3	23.3	85	19.5	0	1	270	0.00	30.331 
04:45	23.2	23.2	23.2	85	19.4	0	1	270	0.00	30.335 
04:50	23.2	23.2	23.2	86	19.6	0	1	270	0.00	30.339 
04:55	23.0	23.0	23.0	86	19.4	0	1	270	0.00	30.345 
05:00	23.0	23.0	23.0	86	19.4	0	1	270	0.00	30.347 
05:05	23.0	23.0	23.0	86	19.4	0	2	270	0.00	30.349 
05:10	22.9	22.9	22.9	86	19.4	0	1	270	0.00	30.350 
05:15	22.9	22.9	22.9	87	19.6	0	2	270	0.00	30.351 
05:20	22.9	22.9	22.9	87	19.6	0	1	292	0.00	30.352 
05:25	22.9	22.9	22.9	87	19.6	0	2	292	0.00	30.352 
05:30	22.7	22.7	22.7	86	19.2	0	2	292	0.00	30.352 
05:35	22.7	22.7	22.7	86	19.2	0	2	292	0.00	30.355 
05:40	22.7	22.7	22.7	86	19.2	0	2	292	0.00	30.358 
05:45	22.5	22.5	22.5	86	19.0	0	1	292	0.00	30.364 
05:50	22.5	22.5	22.5	85	18.7	0	1	292	0.00	30.365 
05:55	22.4	22.4	22.4	85	18.6	0	1	292	0.00	30.364 
06:00	22.4	22.4	22.4	85	18.6	0	2	292	0.00	30.365 
06:05	22.2	22.2	22.2	85	18.4	0	2	292	0.00	30.366 
06:10	22.2	22.2	22.2	85	18.4	0	1	292	0.00	30.367 
06:15	22.2	22.2	22.2	84	18.1	0	1	292	0.00	30.370 
06:20	22.1	22.1	22.1	84	18.0	0	1	292	0.00	30.368 
06:25	21.9	21.9	21.9	84	17.8	0	2	292	0.00	30.368 
06:30	21.9	21.9	21.9	84	17.8	0	1	292	0.00	30.368 
06:35	21.8	21.8	21.8	83	17.4	0	1	292	0.00	30.372 
06:40	21.6	21.6	21.6	83	17.3	0	1	292	0.00	30.373 
06:45	21.6	21.6	21.6	83	17.3	0	1	292	0.00	30.377 
06:50	21.4	21.4	21.4	83	17.1	0	1	292	0.00	30.382 
06:55	21.4	21.4	21.4	83	17.1	0	1	292	0.00	30.383 
07:00	21.3	21.3	21.3	83	17.0	0	0	---	0.00	30.386 
07:05	21.1	21.1	21.1	83	16.8	0	1	292	0.00	30.387 
07:10	21.1	21.1	21.1	83	16.8	0	1	292	0.00	30.388 
07:15	21.0	21.0	21.0	82	16.4	0	1	292	0.00	30.390 
07:20	20.8	20.8	20.8	82	16.2	0	1	292	0.00	30.393 
07:25	20.8	20.8	20.8	82	16.2	0	0	---	0.00	30.397 
07:30	20.8	20.8	20.8	82	16.2	0	0	---	0.00	30.399 
07:35	20.6	20.6	20.6	82	16.0	0	1	292	0.00	30.400 
07:40	20.6	20.6	20.6	83	16.3	0	1	292	0.00	30.401 
07:45	20.6	20.6	20.6	83	16.3	0	1	292	0.00	30.400 
07:50	20.6	20.6	20.6	83	16.3	0	1	292	0.00	30.401 
07:55	20.8	20.8	20.8	83	16.5	0	2	292	0.00	30.406 
08:00	21.0	21.0	21.0	82	16.4	0	2	292	0.00	30.411 
08:05	21.0	21.0	21.0	82	16.4	0	1	292	0.00	30.415 
08:10	21.3	21.3	21.3	82	16.7	0	1	292	0.00	30.417 
08:15	21.6	21.6	21.6	81	16.7	0	1	292	0.00	30.419 
08:20	21.9	21.9	21.9	81	17.0	0	1	292	0.00	30.418 
08:25	22.2	22.2	22.2	80	17.0	0	1	292	0.00	30.422 
08:30	22.4	22.4	22.4	79	16.9	0	2	292	0.00	30.428 
08:35	22.5	22.5	22.5	79	17.0	0	2	292	0.00	30.430 
08:40	22.7	22.7	22.7	78	16.9	0	1	292	0.00	30.431 
08:45	22.9	22.9	22.9	77	16.8	0	2	315	0.00	30.432 
08:50	23.2	23.2	23.2	77	17.1	0	2	315	0.00	30.434 
08:55	23.3	23.3	23.3	76	16.9	0	2	315	0.00	30.435 
09:00	23.6	23.6	23.6	75	16.9	0	1	315	0.00	30.435 
09:05	23.9	23.9	23.9	74	16.8	0	3	315	0.00	30.437 
09:10	24.2	24.2	24.2	73	16.8	0	3	270	0.00	30.438 
09:15	24.7	24.7	24.7	71	16.7	0	2	270	0.00	30.443 
09:20	25.0	25.0	25.0	69	16.3	0	2	292	0.00	30.444 
09:25	25.3	25.3	25.3	69	16.6	0	2	315	0.00	30.445 
09:30	25.4	25.4	25.4	67	16.0	0	3	0	0.00	30.446 
09:35	25.6	25.6	25.6	66	15.8	1	3	0	0.00	30.444 
09:40	25.7	25.7	25.7	65	15.6	0	3	315	0.00	30.445 
09:45	26.0	26.0	26.0	64	15.5	1	3	0	0.00	30.448 
09:50	26.1	26.1	26.1	61	14.5	1	3	338	0.00	30.446 
09:55	26.3	26.3	26.3	60	14.3	1	6	0	0.00	30.447 
10:00	26.7	26.7	26.7	61	15.1	0	2	338	0.00	30.448 
10:05	26.9	26.9	26.9	57	13.7	0	4	0	0.00	30.446 
10:10	27.2	27.2	27.2	57	14.0	1	3	315	0.00	30.448 
10:15	27.2	27.2	27.2	55	13.2	1	3	22	0.00	30.450 
10:20	27.5	27.5	27.5	53	12.6	1	3	338	0.00	30.451 
10:25	27.6	27.6	27.6	54	13.2	0	3	292	0.00	30.456 
10:30	27.8	27.8	27.8	52	12.5	1	3	22	0.00	30.456 
10:35	27.9	27.9	27.9	52	12.6	1	3	22	0.00	30.457 
10:40	28.1	28.1	28.1	51	12.3	1	4	22	0.00	30.458 
10:45	28.4	28.4	28.4	51	12.6	1	3	270	0.00	30.458 
10:50	28.5	28.5	28.5	50	12.3	1	3	0	0.00	30.458 
10:55	28.7	28.7	28.7	50	12.4	1	3	338	0.00	30.457 
11:00	28.7	28.7	28.7	49	12.0	1	5	315	0.00	30.459 
11:05	28.7	28.7	28.7	50	12.4	1	4	22	0.00	30.461 
11:10	29.1	29.1	29.1	51	13.3	1	3	338	0.00	30.464 
11:15	29.4	29.4	29.4	48	12.2	1	4	292	0.00	30.461 
11:20	29.5	29.5	29.5	50	13.2	1	3	0	0.00	30.460 
11:25	29.3	29.3	29.3	47	11.6	2	10	338	0.00	30.460 
11:30	29.4	29.4	29.4	49	12.6	1	3	22	0.00	30.459 
11:35	29.4	29.4	29.4	49	12.6	2	5	22	0.00	30.459 
11:40	29.4	29.4	29.4	48	12.2	1	5	0	0.00	30.459 
11:45	29.5	29.5	29.5	50	13.2	1	4	270	0.00	30.456 
11:50	29.7	29.7	29.7	47	12.0	1	7	315	0.00	30.456 
11:55	29.7	29.7	29.7	49	12.9	1	5	292	0.00	30.452 
12:00	29.7	29.7	29.7	48	12.4	1	4	22	0.00	30.452 
12:05	29.8	29.8	29.8	49	13.0	1	4	270	0.00	30.450 
12:10	29.7	29.7	29.7	50	13.4	1	6	338	0.00	30.448 
12:15	29.8	29.8	29.8	50	13.5	1	4	270	0.00	30.449 
12:20	29.8	29.8	29.8	49	13.0	1	3	270	0.00	30.448 
12:25	30.0	30.0	30.0	49	13.2	2	4	338	0.00	30.449 
12:30	30.1	30.1	30.1	48	12.8	2	6	315	0.00	30.447 
12:35	30.1	30.1	30.1	48	12.8	1	5	22	0.00	30.444 
12:40	30.1	30.1	30.1	49	13.3	1	5	315	0.00	30.448 
12:45	30.4	30.4	30.4	47	12.6	1	5	292	0.00	30.442 
12:50	30.4	30.4	30.4	48	13.1	1	4	338	0.00	30.440 
12:55	30.6	30.6	30.6	47	12.8	1	5	22	0.00	30.438 
13:00	30.6	30.6	30.6	50	14.2	1	3	68	0.00	30.431 
13:05	30.9	30.9	30.9	50	14.5	1	4	270	0.00	30.430 
13:10	31.0	31.0	31.0	48	13.6	1	3	270	0.00	30.430 
13:15	31.0	31.0	31.0	48	13.6	1	4	315	0.00	30.432 
13:20	31.3	31.3	31.3	50	14.8	1	4	270	0.00	30.431 
13:25	31.2	31.2	31.2	47	13.3	1	3	315	0.00	30.431 
13:30	31.3	31.3	31.3	47	13.4	1	2	292	0.00	30.431 
13:35	31.6	31.6	31.6	50	15.1	1	4	270	0.00	30.432 
13:40	31.6	31.6	31.6	47	13.7	1	4	270	0.00	30.432 
13:45	31.3	31.3	31.3	47	13.4	2	4	315	0.00	30.432 
13:50	31.3	31.3	31.3	48	13.9	2	4	338	0.00	30.428 
13:55	31.3	31.3	31.3	49	14.4	1	3	292	0.00	30.426 
14:00	31.3	31.3	31.3	49	14.4	1	3	270	0.00	30.426 
14:05	31.8	31.8	31.8	50	15.3	1	4	292	0.00	30.425 
14:10	31.9	31.9	31.9	48	14.5	1	4	270	0.00	30.427 
14:15	31.6	31.6	31.6	47	13.7	1	5	22	0.00	30.427 
14:20	31.5	31.5	31.5	48	14.1	1	4	292	0.00	30.428 
14:25	31.3	31.3	31.3	49	14.4	1	3	315	0.00	30.427 
14:30	31.6	31.6	31.6	48	14.2	1	4	315	0.00	30.425 
14:35	31.6	31.6	31.6	50	15.1	1	5	292	0.00	30.427 
14:40	31.8	31.8	31.8	48	14.4	1	4	315	0.00	30.430 
14:45	31.6	31.6	31.6	47	13.7	2	4	315	0.00	30.427 
14:50	31.5	31.5	31.5	48	14.1	2	5	248	0.00	30.425 
14:55	31.6	31.6	31.6	47	13.7	1	3	270	0.00	30.424 
15:00	31.6	31.6	31.6	48	14.2	1	4	315	0.00	30.425 
15:05	31.8	31.8	31.8	47	13.9	1	3	0	0.00	30.424 
15:10	31.5	31.5	31.5	47	13.6	1	3	0	0.00	30.424 
15:15	31.6	31.6	31.6	48	14.2	1	3	270	0.00	30.424 
15:20	31.6	31.6	31.6	47	13.7	1	4	338	0.00	30.423 
15:25	31.5	31.5	31.5	47	13.6	1	5	292	0.00	30.424 
15:30	31.3	31.3	31.3	47	13.4	1	3	315	0.00	30.426 
15:35	31.3	31.3	31.3	49	14.4	1	2	338	0.00	30.426 
15:40	31.3	31.3	31.3	49	14.4	1	5	292	0.00	30.425 
15:45	31.2	31.2	31.2	48	13.8	2	5	338	0.00	30.428 
15:50	31.0	31.0	31.0	48	13.6	1	3	338	0.00	30.427 
15:55	31.0	31.0	31.0	49	14.1	1	3	338	0.00	30.427 
16:00	31.0	31.0	31.0	50	14.6	1	3	0	0.00	30.427 
16:05	31.0	31.0	31.0	49	14.1	1	4	338	0.00	30.428 
16:10	30.9	30.9	30.9	48	13.5	1	5	270	0.00	30.429 
16:15	30.6	30.6	30.6	49	13.7	1	3	292	0.00	30.428 
16:20	30.6	30.6	30.6	49	13.7	1	4	292	0.00	30.429 
16:25	30.3	30.3	30.3	50	13.9	0	2	338	0.00	30.430 
16:30	30.3	30.3	30.3	50	13.9	1	3	338	0.00	30.430 
16:35	30.1	30.1	30.1	49	13.3	1	4	338	0.00	30.430 
16:40	29.8	29.8	29.8	50	13.5	0	2	338	0.00	30.429 
16:45	29.8	29.8	29.8	50	13.5	0	2	338	0.00	30.430 
16:50	29.7	29.7	29.7	50	13.4	1	2	338	0.00	30.433 
16:55	29.5	29.5	29.5	50	13.2	0	2	338	0.00	30.433 
17:00	29.4	29.4	29.4	51	13.5	0	1	248	0.00	30.436 
17:05	29.3	29.3	29.3	52	13.9	0	2	248	0.00	30.442 
17:10	29.1	29.1	29.1	53	14.1	0	1	315	0.00	30.443 
17:15	29.0	29.0	29.0	54	14.5	0	1	315	0.00	30.440 
17:20	28.8	28.8	28.8	54	14.3	0	3	338	0.00	30.441 
17:25	28.7	28.7	28.7	55	14.6	1	3	292	0.00	30.444 
17:30	28.5	28.5	28.5	56	14.8	0	2	292	0.00	30.442 
17:35	28.4	28.4	28.4	56	14.7	0	2	292	0.00	30.439 
17:40	28.2	28.2	28.2	57	14.9	0	1	292	0.00	30.442 
17:45	27.9	27.9	27.9	58	15.1	0	1	292	0.00	30.442 
17:50	27.8	27.8	27.8	58	15.0	0	1	292	0.00	30.442 
17:55	27.6	27.6	27.6	58	14.8	0	1	292	0.00	30.436 
18:00	27.6	27.6	27.6	58	14.8	0	0	---	0.00	30.433 
18:05	27.3	27.3	27.3	58	14.5	0	0	---	0.00	30.434 
18:10	27.2	27.2	27.2	58	14.4	0	1	292	0.00	30.434 
18:15	27.0	27.0	27.0	59	14.6	0	0	---	0.00	30.434 
18:20	26.9	26.9	26.9	59	14.5	0	0	---	0.00	30.433 
18:25	26.7	26.7	26.7	59	14.3	0	0	---	0.00	30.434 
18:30	26.4	26.4	26.4	60	14.4	0	0	---	0.00	30.435 
18:35	26.1	26.1	26.1	61	14.5	0	0	---	0.00	30.435 
18:40	26.0	26.0	26.0	62	14.8	0	0	---	0.00	30.434 
18:45	25.7	25.7	25.7	62	14.5	0	0	---	0.00	30.432 
18:50	25.6	25.6	25.6	63	14.8	0	0	---	0.00	30.433 
18:55	25.4	25.4	25.4	63	14.6	0	0	---	0.00	30.434 
19:00	25.1	25.1	25.1	64	14.7	0	0	---	0.00	30.433 
19:05	25.0	25.0	25.0	64	14.6	0	0	---	0.00	30.433 
19:10	24.7	24.7	24.7	65	14.6	0	0	---	0.00	30.432 
19:15	24.4	24.4	24.4	65	14.3	0	0	---	0.00	30.434 
19:20	24.1	24.1	24.1	66	14.4	0	0	---	0.00	30.433 
19:25	23.8	23.8	23.8	67	14.5	0	0	---	0.00	30.433 
19:30	23.6	23.6	23.6	68	14.6	0	0	---	0.00	30.434 
19:35	23.5	23.5	23.5	69	14.9	0	0	---	0.00	30.436 
19:40	23.3	23.3	23.3	69	14.7	0	0	---	0.00	30.436 
19:45	23.0	23.0	23.0	69	14.4	0	0	---	0.00	30.436 
19:50	22.9	22.9	22.9	70	14.6	0	0	---	0.00	30.437 
19:55	22.5	22.5	22.5	71	14.5	0	0	---	0.00	30.437 
20:00	22.4	22.4	22.4	72	14.8	0	0	---	0.00	30.436 
20:05	22.2	22.2	22.2	72	14.6	0	0	---	0.00	30.433 
20:10	22.2	22.2	22.2	73	14.9	0	0	---	0.00	30.432 
20:15	22.1	22.1	22.1	74	15.1	0	0	---	0.00	30.431 
20:20	21.9	21.9	21.9	74	14.9	0	0	---	0.00	30.429 
20:25	21.8	21.8	21.8	74	14.8	0	0	---	0.00	30.428 
20:30	21.6	21.6	21.6	75	14.9	0	0	---	0.00	30.428 
20:35	21.4	21.4	21.4	75	14.7	0	0	---	0.00	30.427 
20:40	21.3	21.3	21.3	75	14.6	0	0	---	0.00	30.428 
20:45	21.1	21.1	21.1	75	14.4	0	0	---	0.00	30.426 
20:50	21.0	21.0	21.0	77	14.9	0	0	---	0.00	30.421 
20:55	21.1	21.1	21.1	77	15.0	0	0	---	0.00	30.418 
21:00	21.1	21.1	21.1	77	15.0	0	0	---	0.00	30.418 
21:05	21.0	21.0	21.0	77	14.9	0	0	---	0.00	30.415 
21:10	20.8	20.8	20.8	77	14.7	0	0	---	0.00	30.416 
21:15	20.6	20.6	20.6	77	14.6	0	0	---	0.00	30.415 
21:20	20.5	20.5	20.5	78	14.8	0	0	---	0.00	30.410 
21:25	20.3	20.3	20.3	78	14.6	0	0	---	0.00	30.408 
21:30	20.2	20.2	20.2	78	14.5	0	0	---	0.00	30.408 
21:35	19.9	19.9	19.9	78	14.2	0	0	---	0.00	30.406 
21:40	19.7	19.7	19.7	78	14.0	0	0	---	0.00	30.403 
21:45	19.5	19.5	19.5	79	14.1	0	0	---	0.00	30.402 
21:50	19.4	19.4	19.4	79	14.0	0	0	---	0.00	30.400 
21:55	19.2	19.2	19.2	80	14.1	0	0	---	0.00	30.396 
22:00	19.4	19.4	19.4	81	14.5	0	0	---	0.00	30.395 
22:05	19.4	19.4	19.4	81	14.5	0	0	---	0.00	30.391 
22:10	19.4	19.4	19.4	81	14.5	0	0	---	0.00	30.387 
22:15	19.2	19.2	19.2	82	14.6	0	0	---	0.00	30.386 
22:20	19.2	19.2	19.2	82	14.6	0	0	---	0.00	30.386 
22:25	19.1	19.1	19.1	82	14.5	0	0	---	0.00	30.385 
22:30	18.9	18.9	18.9	82	14.3	0	0	---	0.00	30.383 
22:35	18.8	18.8	18.8	82	14.2	0	0	---	0.00	30.383 
22:40	18.8	18.8	18.8	82	14.2	0	0	---	0.00	30.375 
22:45	18.6	18.6	18.6	83	14.3	0	0	---	0.00	30.373 
22:50	18.6	18.6	18.6	83	14.3	0	0	---	0.00	30.375 
22:55	18.4	18.4	18.4	83	14.1	0	0	---	0.00	30.377 
23:00	18.4	18.4	18.4	83	14.1	0	0	---	0.00	30.374 
23:05	18.4	18.4	18.4	84	14.4	0	0	---	0.00	30.371 
23:10	18.4	18.4	18.4	84	14.4	0	0	---	0.00	30.372 
23:15	18.6	18.6	18.6	84	14.6	0	0	---	0.00	30.370 
23:20	18.6	18.6	18.6	85	14.9	0	0	---	0.00	30.369 
23:25	18.4	18.4	18.4	85	14.7	0	0	---	0.00	30.369 
23:30	18.4	18.4	18.4	85	14.7	0	0	---	0.00	30.368 
23:35	18.3	18.3	18.3	85	14.6	0	0	---	0.00	30.368 
23:40	18.3	18.3	18.3	85	14.6	0	0	---	0.00	30.366 
23:45	18.1	18.1	18.1	85	14.4	0	0	---	0.00	30.367 
23:50	18.0	18.0	18.0	85	14.3	0	0	---	0.00	30.368 
23:55	18.0	18.0	18.0	85	14.3	0	0	---	0.00	30.369 

CoCoRaHS
IN-AL-39
A2 Web Hosting
Creative Commons License
GoDaddy
Look for:

loaded 2017-10-16 20:22:28 • last modified 2010-11-18 10:43:29
Privacy PolicyDisclaimer
• wx.awcolley.com is powered by PmWiki v.2002016 •
• all content (unless otherwise noted) © 2017 A W Colley